LFBPLFBT

Guest
Details From LFBP - Pau Pyrenees
To LFBT - Tarbes Ossun Lourdes
Flight Number -
Tags decoded
Created
Modified
Stats Distance 22 nm / 40 km
Max Altitude 0 ft / 0 m
Waypoints 2
Social Downloads 0
Likes 0
Share VATSIM

Download

Looking for another format? Having issues loading an existing format? Contact us
Advertisement - Login to hide

Notes

Requested: LFBP LFBT

Route

LFBP LFBT

ID Type Via Altitude Latitude Longitude Leg Dist Tot Dist Heading (true) Name
O LFBP APT - 0 ft / 0 m 43.38108˚ -0.42075˚ - 0 nm - Pau Pyrenees
O LFBT APT - 0 ft / 0 m 43.17864˚ -0.00634˚ 21 nm 21 nm 124° / 124° Tarbes Ossun Lourdes

Altitude Profile

Advertisement - Login to hide

LFBP

Details ICAO LFBP (PUF)
Name Pau Pyrenees
Region France
Timezone Europe/Paris (UTC+2.0)
Stats Elevation 616 ft / 188 m (AMSL)
Location 43.381078° -0.420752°
Runways 1
Magnetic Variation 0.147° E

METAR

LFBP 232130Z AUTO 04002KT 9999 SCT074 SCT086 BKN140 18/15 Q1017 NOSIG

Decode

TAF

TAF LFBP 231700Z 2318/2418 VRB02KT 9999 FEW050 PROB40 TEMPO 2318/2320 SHRA BKN040TCU FEW045CB PROB30 TEMPO 2318/2320 4000 TSRA BKN040CB PROB40 TEMPO 2404/2406 4000 SHRA BKN040TCU

Decode

Departure Runways

ID Width Length Bearing (true) Bearing (mag) Surface Threshold Offset Overrun Length
13 148 ft / 45 m 8,191 ft / 2,497 m 125.89° 125.74° Asphalt 0 ft / 0 m 0 ft / 0 m
31 148 ft / 45 m 8,191 ft / 2,497 m 305.90° 305.75° Asphalt 0 ft / 0 m 0 ft / 0 m

LFBT

Details ICAO LFBT (LDE)
Name Tarbes Ossun Lourdes
Region France
Timezone Europe/Paris (UTC+2.0)
Stats Elevation 1,260 ft / 384 m (AMSL)
Location 43.178643° -0.006340°
Runways 1
Magnetic Variation 0.271° E

METAR

LFBT 232130Z AUTO 23002KT 9999 FEW088 BKN130 OVC150 17/16 Q1017 NOSIG

Decode

TAF

TAF LFBT 231700Z 2318/2418 VRB03KT 9999 SCT050 TEMPO 2318/2320 SHRA BKN040TCU PROB40 TEMPO 2318/2320 4000 TSRA BKN040CB PROB40 TEMPO 2404/2406 4000 SHRA BKN040TCU PROB30 TEMPO 2416/2418 SHRA BKN040TCU

Decode

Destination Runways

ID Width Length Bearing (true) Bearing (mag) Surface Threshold Offset Overrun Length
02 148 ft / 45 m 9,847 ft / 3,001 m 20.26° 19.99° Asphalt 2,199 ft / 670 m 0 ft / 0 m
20 148 ft / 45 m 9,847 ft / 3,001 m 200.27° 200.00° Asphalt 0 ft / 0 m 0 ft / 0 m

Approach Navaids

Runway Type Ident Frequency Range Bearing (true) Bearing (mag) Slope Elevation
20 Localiser OS 109.50 MHz 18 nm / 33 km 200.27° 200.00° - 1,265 ft / 386 m (AMSL)
20 Glidescope OS 109.50 MHz 10 nm / 19 km 200.27° 200.00° 3.00° 1,265 ft / 386 m (AMSL)
20 DME OS 109.50 MHz 18 nm / 33 km - - - 1,217 ft / 371 m (AMSL)

Popular Alternatives